Terminal Aerodrome Forecast
Issued by NWS

Home | Current Version | Previous Version | Text Only | Print | Product List | Glossary On
Versions: 1 2 3 4 5 6 7 8 9 10 11 12 13 14 15 16 17
000
FTUS46 KPDT 291726
TAFYKM
TAF
KYKM 291726Z 2918/3018 24018G24KT P6SM SCT100
      TEMPO 2918/2920 4SM BLDU
     FM300200 20008KT P6SM SCT080
     FM301200 23006KT P6SM -RA SCT050 OVC080
     FM301500 23010KT P6SM OVC070=

USA.gov is the U.S. government's official web portal to all federal, state and local government web resources and services.